メインページ
METAR-TAF:

METAR-TAF

空港 :

Shepherd Bay, ヌナブト準州, カナダ

緯度: 68-49N, 経度: 093-26W, 海抜: 51m

現時点の気象観測

当レポートは1時間0分前の03:00(UTC)に作成
西/南西の風 7kt、最大15ktの突風を伴う、南東から西の間で変化する
気温 -31°C
湿度 61%
気圧 1007 hPa
高度12000ftの千切れ雲あり
高度14000ftの曇り

METAR: CYUS 130300Z AUTO 24007G15KT 140V270 ////SM //// BKN120 OVC140 M31/M36 A2974

時間: 21:00 (04:00 UTC)


TAF: 見つかりません

4,000以上の空港の気象観測と天気予報(METAR報とTAF報)

利用可能な観測所は地図上に黄色い丸と赤い丸で示す。

丸の上にカーソルを重ねると観測所名を参照できる。

次にクリックすると気象観測と天気予報を参照できる。

マップの切り替え:黒色「×」印の緑ボタンをクリックして拡大、「-」印の緑ボタンをクリックして縮小、緑色の三角印をクリックして隣りの地図に切り替え


METAR-TAF: